createdAt,value
2023-03-16T00:00:13.860Z,1.17
2023-03-16T00:05:16.050Z,0.93
2023-03-16T00:10:18.440Z,1.00
2023-03-16T00:15:21.365Z,0.90
2023-03-16T00:20:23.461Z,1.05
2023-03-16T00:25:25.799Z,1.25
2023-03-16T00:30:28.325Z,1.00
2023-03-16T00:35:34.714Z,0.98
2023-03-16T00:40:37.250Z,0.88
2023-03-16T00:45:39.654Z,0.80
2023-03-16T00:50:43.224Z,1.00
2023-03-16T00:55:45.358Z,0.60
2023-03-16T01:00:53.359Z,1.00
2023-03-16T01:05:59.997Z,1.00
2023-03-16T01:11:07.692Z,0.63
2023-03-16T01:16:10.869Z,0.85
2023-03-16T01:21:14.084Z,1.02
2023-03-16T01:26:17.856Z,0.73
2023-03-16T01:31:22.140Z,1.00
2023-03-16T01:36:24.416Z,0.82
2023-03-16T01:41:37.046Z,0.63
2023-03-16T01:46:39.249Z,0.70
2023-03-16T01:51:52.066Z,1.00
2023-03-16T01:57:04.830Z,0.75
2023-03-16T02:02:09.100Z,0.60
2023-03-16T02:07:17.238Z,0.90
2023-03-16T02:12:21.609Z,0.85
2023-03-16T02:17:31.773Z,0.70
2023-03-16T02:22:42.792Z,1.05
2023-03-16T02:27:57.024Z,0.90
2023-03-16T02:33:00.321Z,0.85
2023-03-16T02:38:02.788Z,1.13
2023-03-16T02:43:13.485Z,0.80
2023-03-16T02:48:24.704Z,1.00
2023-03-16T02:53:27.011Z,1.08
2023-03-16T02:58:32.079Z,0.85
2023-03-16T03:03:37.275Z,0.63
2023-03-16T03:08:40.204Z,0.70
2023-03-16T03:13:44.594Z,0.70
2023-03-16T03:18:52.845Z,0.70
2023-03-16T03:23:55.576Z,1.10
2023-03-16T03:28:57.646Z,0.80
2023-03-16T03:33:59.717Z,0.50
2023-03-16T03:39:05.133Z,0.70
2023-03-16T03:44:08.649Z,0.77
2023-03-16T03:49:12.963Z,1.45
2023-03-16T03:54:15.176Z,0.90
2023-03-16T03:59:46.530Z,0.93
2023-03-16T04:05:17.893Z,0.55
2023-03-16T04:10:21.240Z,0.70
2023-03-16T04:15:23.784Z,0.68
2023-03-16T04:20:38.561Z,0.77
2023-03-16T04:25:42.341Z,0.85
2023-03-16T04:30:45.012Z,0.80
2023-03-16T04:35:59.952Z,1.08
2023-03-16T04:41:04.778Z,0.80
2023-03-16T04:46:11.967Z,0.90
2023-03-16T04:51:14.914Z,0.90
2023-03-16T04:56:25.496Z,0.95
2023-03-16T05:01:33.179Z,0.77
2023-03-16T05:06:38.036Z,0.90
2023-03-16T05:11:41.178Z,0.90
2023-03-16T05:16:47.292Z,0.82
2023-03-16T05:21:50.660Z,0.73
2023-03-16T05:26:53.705Z,0.70
2023-03-16T05:31:59.452Z,0.80
2023-03-16T05:37:04.351Z,0.90
2023-03-16T05:42:08.330Z,0.85
2023-03-16T05:47:23.316Z,0.98
2023-03-16T05:52:30.288Z,0.85
2023-03-16T05:57:35.147Z,0.85
2023-03-16T06:02:37.903Z,0.95
2023-03-16T06:07:41.685Z,0.82
2023-03-16T06:12:45.669Z,4.78
2023-03-16T06:17:48.867Z,4.10
2023-03-16T06:22:51.322Z,5.55
2023-03-16T06:27:53.628Z,3.90
2023-03-16T06:32:55.920Z,2.85
2023-03-16T06:37:59.885Z,2.90
2023-03-16T06:43:17.859Z,2.47
2023-03-16T06:48:20.224Z,4.13
2023-03-16T06:53:23.749Z,3.15
2023-03-16T06:58:27.478Z,1.40
2023-03-16T07:03:30.173Z,1.23
2023-03-16T07:08:37.555Z,1.48
2023-03-16T07:13:39.875Z,1.10
2023-03-16T07:18:44.591Z,1.30
2023-03-16T07:28:58.182Z,1.48
2023-03-16T07:34:02.500Z,1.35
2023-03-16T07:39:14.422Z,1.05
2023-03-16T07:44:17.521Z,1.20
2023-03-16T07:49:23.792Z,1.80
2023-03-16T07:54:28.586Z,1.70
2023-03-16T07:59:31.468Z,1.20
2023-03-16T08:04:34.457Z,1.40
2023-03-16T08:09:37.873Z,1.55
2023-03-16T08:14:45.767Z,1.05
2023-03-16T08:19:53.518Z,1.10
2023-03-16T08:24:59.317Z,1.13
2023-03-16T08:30:05.152Z,1.10
2023-03-16T08:35:13.980Z,1.10
2023-03-16T08:40:20.297Z,1.10
2023-03-16T08:45:24.379Z,1.38
2023-03-16T08:50:28.382Z,1.20
2023-03-16T08:55:30.593Z,1.27
2023-03-16T09:00:32.814Z,1.25
2023-03-16T09:05:35.158Z,1.20
2023-03-16T09:10:38.039Z,1.20
2023-03-16T09:15:40.415Z,1.55
2023-03-16T09:20:42.751Z,1.10
2023-03-16T09:25:45.434Z,1.40
2023-03-16T09:30:48.406Z,1.80
2023-03-16T09:35:52.231Z,1.30
2023-03-16T09:41:09.802Z,1.90
2023-03-16T09:46:33.921Z,1.70
2023-03-16T09:51:52.417Z,2.28
2023-03-16T09:56:55.778Z,1.75
2023-03-16T10:02:10.860Z,2.03
2023-03-16T10:07:24.321Z,1.67
2023-03-16T10:12:32.451Z,1.80
2023-03-16T10:18:03.413Z,1.60
2023-03-16T10:23:34.373Z,2.10
2023-03-16T10:28:37.736Z,1.88
2023-03-16T10:33:40.525Z,2.50
2023-03-16T10:38:49.463Z,2.55
2023-03-16T10:43:52.681Z,2.05
2023-03-16T10:49:00.841Z,1.90
2023-03-16T10:54:16.223Z,2.10
2023-03-16T10:59:34.401Z,2.22
2023-03-16T11:04:38.192Z,2.25
2023-03-16T11:09:40.546Z,2.55
2023-03-16T11:14:45.495Z,2.10
2023-03-16T11:19:54.662Z,2.13
2023-03-16T11:25:07.243Z,2.28
2023-03-16T11:30:31.001Z,2.35
2023-03-16T11:35:59.313Z,2.00
2023-03-16T11:41:05.884Z,2.35
2023-03-16T11:46:45.160Z,2.15
2023-03-16T11:52:17.323Z,2.53
2023-03-16T11:57:28.288Z,2.00
2023-03-16T12:03:04.892Z,2.15
2023-03-16T12:08:13.434Z,2.25
2023-03-16T12:13:18.589Z,1.85
2023-03-16T12:18:49.930Z,2.77
2023-03-16T12:23:55.371Z,2.25
2023-03-16T12:28:59.745Z,2.75
2023-03-16T12:34:35.585Z,2.10
2023-03-16T12:40:07.393Z,1.73
2023-03-16T12:45:18.046Z,2.00
2023-03-16T12:50:20.803Z,1.90
2023-03-16T12:55:33.452Z,1.75
2023-03-16T13:00:38.476Z,2.13
2023-03-16T13:05:49.862Z,1.70
2023-03-16T13:11:05.432Z,1.50
2023-03-16T13:16:25.382Z,1.95
2023-03-16T13:21:39.801Z,2.00
2023-03-16T13:26:43.853Z,2.17
2023-03-16T13:31:46.454Z,1.50
2023-03-16T13:36:53.206Z,1.50
2023-03-16T13:42:00.698Z,1.45
2023-03-16T13:47:07.451Z,1.52
2023-03-16T13:52:20.920Z,1.30
2023-03-16T13:57:28.491Z,1.45
2023-03-16T14:02:31.105Z,1.42
2023-03-16T14:07:38.532Z,1.73
2023-03-16T14:12:54.758Z,1.65
2023-03-16T14:18:13.057Z,1.90
2023-03-16T14:23:25.530Z,2.20
2023-03-16T14:28:32.453Z,1.58
2023-03-16T14:33:41.361Z,1.75
2023-03-16T14:38:54.464Z,1.60
2023-03-16T14:44:01.617Z,1.60
2023-03-16T14:49:22.763Z,1.38
2023-03-16T14:54:26.661Z,1.58
2023-03-16T14:59:28.968Z,1.40
2023-03-16T15:04:36.361Z,1.30
2023-03-16T15:09:46.099Z,1.27
2023-03-16T15:15:06.951Z,1.55
2023-03-16T15:20:12.520Z,1.10
2023-03-16T15:25:40.128Z,1.40
2023-03-16T15:30:47.276Z,1.20
2023-03-16T15:35:51.392Z,1.75
2023-03-16T15:40:53.920Z,1.65
2023-03-16T15:45:58.915Z,0.88
2023-03-16T15:51:07.689Z,1.37
2023-03-16T15:56:17.410Z,1.10
2023-03-16T16:01:28.150Z,1.10
2023-03-16T16:06:30.673Z,1.35
2023-03-16T16:11:32.981Z,1.00
2023-03-16T16:16:35.369Z,1.20
2023-03-16T16:21:37.724Z,1.02
2023-03-16T16:26:51.993Z,1.25
2023-03-16T16:31:56.155Z,0.90
2023-03-16T16:36:58.253Z,1.02
2023-03-16T16:42:00.540Z,1.00
2023-03-16T16:47:03.708Z,1.20
2023-03-16T16:52:06.838Z,1.00
2023-03-16T16:57:18.335Z,1.10
2023-03-16T17:02:42.193Z,1.50
2023-03-16T17:07:44.408Z,1.20
2023-03-16T17:12:47.266Z,2.10
2023-03-16T17:17:50.457Z,2.75
2023-03-16T17:22:54.701Z,2.30
2023-03-16T17:27:58.064Z,7.55
2023-03-16T17:33:07.732Z,3.53
2023-03-16T17:38:22.108Z,3.97
2023-03-16T17:43:24.423Z,1.90
2023-03-16T17:48:26.501Z,1.75
2023-03-16T17:53:28.712Z,1.40
2023-03-16T17:58:31.664Z,1.65
2023-03-16T18:03:34.030Z,4.75
2023-03-16T18:08:36.926Z,8.80
2023-03-16T18:13:40.633Z,8.45
2023-03-16T18:18:43.752Z,3.67
2023-03-16T18:23:46.348Z,1.83
2023-03-16T18:28:48.501Z,1.20
2023-03-16T18:33:53.840Z,1.20
2023-03-16T18:38:58.562Z,1.35
2023-03-16T18:44:21.763Z,1.50
2023-03-16T18:49:31.458Z,1.23
2023-03-16T18:54:38.407Z,1.17
2023-03-16T18:59:40.855Z,1.17
2023-03-16T19:04:43.043Z,1.20
2023-03-16T19:09:45.161Z,1.25
2023-03-16T19:14:47.672Z,1.00
2023-03-16T19:19:49.709Z,1.10
2023-03-16T19:24:53.922Z,1.30
2023-03-16T19:29:56.754Z,1.50
2023-03-16T19:34:59.349Z,1.90
2023-03-16T19:40:01.627Z,1.52
2023-03-16T19:45:04.856Z,1.70
2023-03-16T19:50:23.986Z,1.30
2023-03-16T19:55:32.088Z,1.67
2023-03-16T20:00:34.811Z,1.40
2023-03-16T20:05:38.661Z,2.60
2023-03-16T20:10:41.022Z,4.68
2023-03-16T20:15:43.615Z,3.30
2023-03-16T20:20:46.799Z,6.00
2023-03-16T20:25:49.917Z,10.80
2023-03-16T20:30:52.620Z,6.45
2023-03-16T20:35:55.474Z,4.35
2023-03-16T20:40:57.909Z,4.22
2023-03-16T20:46:02.435Z,2.50
2023-03-16T20:51:04.754Z,2.97
2023-03-16T20:56:16.535Z,2.92
2023-03-16T21:01:21.694Z,1.80
2023-03-16T21:06:30.065Z,1.80
2023-03-16T21:11:39.493Z,2.47
2023-03-16T21:16:41.520Z,6.22
2023-03-16T21:21:44.185Z,3.17
2023-03-16T21:26:47.582Z,2.70
2023-03-16T21:31:50.181Z,1.67
2023-03-16T21:36:52.600Z,1.77
2023-03-16T21:41:54.717Z,1.50
2023-03-16T21:46:57.066Z,1.20
2023-03-16T21:52:01.171Z,0.90
2023-03-16T21:57:13.936Z,1.40
2023-03-16T22:02:23.250Z,5.05
2023-03-16T22:07:25.517Z,3.78
2023-03-16T22:12:27.792Z,2.15
2023-03-16T22:17:29.937Z,2.90
2023-03-16T22:22:33.272Z,1.65
2023-03-16T22:27:35.940Z,1.60
2023-03-16T22:32:38.692Z,1.45
2023-03-16T22:37:41.395Z,0.70
2023-03-16T22:42:43.531Z,0.68
2023-03-16T22:47:47.753Z,1.00
2023-03-16T22:52:53.324Z,0.70
2023-03-16T22:58:27.757Z,0.60
2023-03-16T23:03:30.411Z,1.42
2023-03-16T23:08:32.548Z,0.60
2023-03-16T23:13:34.548Z,0.68
2023-03-16T23:18:36.775Z,0.70
2023-03-16T23:23:38.903Z,0.63
2023-03-16T23:28:41.843Z,0.70
2023-03-16T23:33:44.789Z,0.80
2023-03-16T23:38:47.964Z,0.90
2023-03-16T23:43:50.758Z,0.82
2023-03-16T23:48:55.697Z,1.33
2023-03-16T23:53:58.494Z,1.40
2023-03-16T23:59:00.549Z,1.20
